Time;durP1;ratioP1;P1;durP2;ratioP2;P2;SDS_P1;SDS_P2;PMS_P1;PMS_P2;Temp;Humidity;BMP_temperature;BMP_pressure;BME280_temperature;BME280_humidity;BME280_pressure;Samples;Min_cycle;Max_cycle;Signal;HPM_P1;HPM_P2
2021/10/31 00:01:28;;;;;;;;;6.00;5.00;;;;;13.08;75.16;100351.91;4972830;28;45627;-66
2021/10/31 00:03:54;;;;;;;;;8.33;6.00;;;;;13.18;75.02;100363.28;4972947;28;45917;-67
2021/10/31 00:06:20;;;;;;;;;8.00;8.00;;;;;13.19;74.51;100357.91;4971960;28;45462;-66
2021/10/31 00:08:47;;;;;;;;;10.00;9.67;;;;;13.20;74.25;100348.16;4970904;28;45322;-71
2021/10/31 00:11:12;;;;;;;;;6.67;6.00;;;;;13.15;75.03;100347.75;4972466;28;45637;-70
2021/10/31 00:13:38;;;;;;;;;6.00;6.00;;;;;13.24;75.04;100354.81;4972382;28;46082;-71
2021/10/31 00:16:03;;;;;;;;;7.67;7.00;;;;;13.30;74.46;100354.25;4973924;28;45677;-70
2021/10/31 00:18:29;;;;;;;;;4.00;4.00;;;;;13.37;75.99;100341.38;4971895;28;45754;-69
2021/10/31 00:20:56;;;;;;;;;10.67;9.33;;;;;13.45;74.02;100338.03;4971932;28;45527;-68
2021/10/31 00:23:22;;;;;;;;;6.67;6.67;;;;;13.43;74.10;100339.97;4971422;28;45593;-67
2021/10/31 00:25:47;;;;;;;;;6.67;5.67;;;;;13.45;74.98;100335.38;4969477;28;45377;-70
2021/10/31 00:28:12;;;;;;;;;10.67;9.00;;;;;13.62;74.30;100341.72;4972130;28;45340;-71
2021/10/31 00:30:38;;;;;;;;;6.00;5.67;;;;;13.57;73.56;100336.91;4971582;28;45619;-70
2021/10/31 00:33:03;;;;;;;;;6.67;5.00;;;;;13.60;74.27;100339.25;4969551;28;47034;-69
2021/10/31 00:35:29;;;;;;;;;11.00;6.00;;;;;13.73;74.74;100348.66;4974065;28;45553;-71
2021/10/31 00:37:54;;;;;;;;;8.00;8.00;;;;;13.73;73.84;100344.19;4976417;28;45723;-69
2021/10/31 00:40:21;;;;;;;;;6.00;6.00;;;;;13.71;74.11;100343.50;4973308;28;45493;-69
2021/10/31 00:42:46;;;;;;;;;8.00;8.00;;;;;13.79;73.67;100345.44;4970469;28;47015;-69
2021/10/31 00:45:11;;;;;;;;;8.33;8.33;;;;;13.76;72.96;100341.25;4971930;28;45461;-68
2021/10/31 00:47:37;;;;;;;;;8.67;8.00;;;;;13.65;72.91;100334.38;4972449;28;45348;-69
2021/10/31 00:50:02;;;;;;;;;9.33;8.67;;;;;13.52;72.62;100339.94;4971741;28;45399;-69
2021/10/31 00:52:31;;;;;;;;;7.00;7.00;;;;;13.38;73.01;100340.41;4972783;28;45873;-68
2021/10/31 00:54:57;;;;;;;;;9.00;8.00;;;;;13.29;73.63;100352.59;4973272;28;45383;-72
2021/10/31 00:57:23;;;;;;;;;9.67;9.67;;;;;13.27;73.17;100346.66;4971544;28;45452;-68
2021/10/31 00:59:48;;;;;;;;;7.00;7.00;;;;;13.20;73.49;100341.06;4971782;28;45324;-74
2021/10/31 01:02:16;;;;;;;;;13.00;9.00;;;;;13.10;73.27;100342.88;4971022;28;45705;-65
2021/10/31 01:04:45;;;;;;;;;8.00;7.00;;;;;12.97;73.29;100337.91;4971025;28;45446;-68
2021/10/31 01:07:24;;;;;;;;;10.33;8.00;;;;;12.83;74.09;100344.44;4974458;28;45328;-70
2021/10/31 01:10:11;;;;;;;;;8.00;8.00;;;;;12.75;74.00;100339.00;4971897;28;45552;-72
2021/10/31 01:12:54;;;;;;;;;9.33;9.33;;;;;12.64;74.10;100339.97;4969616;28;45462;-70
2021/10/31 01:15:22;;;;;;;;;10.33;10.00;;;;;12.58;74.33;100337.88;4964691;28;45625;-69
2021/10/31 01:18:13;;;;;;;;;9.00;9.00;;;;;12.51;74.80;100336.75;4964491;28;45323;-69
2021/10/31 01:21:09;;;;;;;;;13.00;11.00;;;;;12.42;74.71;100327.88;4975692;28;46043;-68
2021/10/31 01:23:50;;;;;;;;;14.00;11.00;;;;;12.34;74.81;100341.72;5002955;28;46156;-70
2021/10/31 01:26:31;;;;;;;;;10.67;8.33;;;;;12.25;74.85;100331.13;4970676;28;45670;-70
2021/10/31 01:29:12;;;;;;;;;11.00;10.67;;;;;12.19;75.43;100338.59;4963352;28;45717;-69
2021/10/31 01:31:49;;;;;;;;;18.33;14.33;;;;;12.14;75.72;100332.09;4968695;28;45461;-68
2021/10/31 01:34:50;;;;;;;;;13.33;9.33;;;;;12.07;75.14;100323.91;4969376;28;46197;-67
2021/10/31 01:37:27;;;;;;;;;11.67;9.33;;;;;12.01;75.97;100325.28;4922680;28;45533;-69
2021/10/31 01:40:05;;;;;;;;;11.67;11.00;;;;;11.99;75.97;100321.94;4932073;28;45497;-68
2021/10/31 01:42:56;;;;;;;;;14.67;12.67;;;;;11.93;75.81;100317.16;4926271;28;45313;-68
2021/10/31 01:45:38;;;;;;;;;12.67;10.00;;;;;11.88;75.72;100316.72;4931791;28;50917;-70
2021/10/31 01:48:25;;;;;;;;;13.33;12.33;;;;;11.83;76.46;100305.75;4926399;28;45532;-68
2021/10/31 01:50:57;;;;;;;;;12.67;10.00;;;;;11.77;76.05;100296.59;4930882;28;45645;-69
2021/10/31 01:53:34;;;;;;;;;13.00;12.33;;;;;11.74;76.12;100299.50;4930083;28;45612;-70
2021/10/31 01:56:19;;;;;;;;;15.00;12.00;;;;;11.70;76.20;100298.09;4921279;28;46594;-68
2021/10/31 01:59:15;;;;;;;;;12.00;11.00;;;;;11.66;76.76;100289.63;4917535;28;45885;-69
2021/10/31 02:01:43;;;;;;;;;12.00;11.00;;;;;11.65;76.99;100292.38;4912803;28;45469;-69
2021/10/31 02:04:12;;;;;;;;;8.00;7.00;;;;;11.62;76.31;100293.47;4926370;28;45545;-68
2021/10/31 02:06:43;;;;;;;;;10.67;7.00;;;;;11.58;76.73;100289.44;4930232;28;45476;-68
2021/10/31 02:09:10;;;;;;;;;11.00;11.00;;;;;11.54;77.02;100288.03;4921571;28;45892;-69
2021/10/31 02:11:38;;;;;;;;;14.00;11.00;;;;;11.51;76.93;100286.50;4916584;28;45605;-68
2021/10/31 02:14:04;;;;;;;;;10.00;10.00;;;;;11.48;76.85;100281.53;4949732;28;45382;-68
2021/10/31 02:16:33;;;;;;;;;11.33;8.33;;;;;11.44;76.68;100289.78;4959660;28;45568;-68
2021/10/31 02:19:04;;;;;;;;;10.33;7.00;;;;;11.39;76.78;100291.03;4969972;28;45442;-70
2021/10/31 02:21:32;;;;;;;;;15.33;11.33;;;;;11.36;77.23;100296.56;4966144;28;45411;-70
2021/10/31 02:23:59;;;;;;;;;12.67;9.33;;;;;11.33;76.99;100288.91;4968304;28;45693;-67
2021/10/31 02:26:24;;;;;;;;;7.00;6.00;;;;;11.29;77.22;100291.94;4969357;28;46167;-69
2021/10/31 02:28:55;;;;;;;;;11.00;10.00;;;;;11.28;77.19;100285.81;4967249;28;48912;-68
2021/10/31 02:31:21;;;;;;;;;12.00;7.00;;;;;11.27;77.15;100283.34;4959152;28;45413;-68
2021/10/31 02:33:47;;;;;;;;;13.67;10.33;;;;;11.26;77.02;100284.28;4964079;28;45571;-68
2021/10/31 02:36:12;;;;;;;;;11.33;9.33;;;;;11.19;77.43;100273.47;4972960;28;46117;-68
2021/10/31 02:38:37;;;;;;;;;10.00;9.67;;;;;11.20;77.16;100269.88;4975977;28;45510;-68
2021/10/31 02:41:03;;;;;;;;;7.00;7.00;;;;;11.17;77.05;100280.63;4976636;28;45668;-67
2021/10/31 02:43:28;;;;;;;;;9.33;8.33;;;;;11.14;77.07;100270.38;4977305;28;45418;-67
2021/10/31 02:45:53;;;;;;;;;5.67;5.67;;;;;11.08;77.34;100263.84;4977030;28;48432;-67
2021/10/31 02:48:20;;;;;;;;;7.67;7.67;;;;;11.08;77.61;100269.13;4976021;28;45521;-68
2021/10/31 02:50:46;;;;;;;;;10.00;10.00;;;;;11.06;77.42;100263.97;4976177;28;45437;-68
2021/10/31 02:53:14;;;;;;;;;7.33;7.33;;;;;11.04;77.46;100257.16;4976471;28;45326;-67
2021/10/31 02:55:58;;;;;;;;;7.33;6.33;;;;;11.00;77.69;100246.09;4976689;28;45474;-68
2021/10/31 02:58:37;;;;;;;;;10.33;9.00;;;;;10.96;77.79;100238.59;4975238;28;45497;-68
2021/10/31 03:01:05;;;;;;;;;9.00;9.00;;;;;10.93;77.56;100239.69;4977712;28;45301;-67
2021/10/31 03:03:32;;;;;;;;;5.00;5.00;;;;;10.90;77.75;100246.03;4976928;28;45346;-68
2021/10/31 03:05:58;;;;;;;;;14.67;11.67;;;;;10.89;77.69;100243.53;4976259;28;45350;-68
2021/10/31 03:08:28;;;;;;;;;12.33;10.00;;;;;10.94;78.34;100246.59;4975034;28;45704;-68
2021/10/31 03:10:59;;;;;;;;;15.00;10.00;;;;;11.01;78.05;100239.84;4975238;28;45324;-67
2021/10/31 03:13:26;;;;;;;;;7.67;6.33;;;;;11.06;78.09;100239.47;4978065;28;45484;-68
2021/10/31 03:15:52;;;;;;;;;11.00;10.00;;;;;11.10;78.05;100234.81;4977997;28;45426;-67
2021/10/31 03:18:17;;;;;;;;;12.00;10.33;;;;;11.10;77.31;100219.84;4978891;28;45419;-67
2021/10/31 03:20:43;;;;;;;;;10.00;7.33;;;;;11.09;77.63;100225.25;4977460;28;45520;-67
2021/10/31 03:23:09;;;;;;;;;14.33;11.67;;;;;11.04;77.79;100221.22;4976086;28;45477;-68
2021/10/31 03:25:34;;;;;;;;;17.33;13.00;;;;;10.99;77.63;100207.63;4974650;28;48393;-67
2021/10/31 03:28:00;;;;;;;;;17.00;12.00;;;;;10.99;78.10;100212.88;4978108;28;45328;-69
2021/10/31 03:30:25;;;;;;;;;12.33;11.00;;;;;10.95;77.87;100211.50;4974963;28;45578;-68
2021/10/31 03:32:51;;;;;;;;;12.33;11.67;;;;;10.97;78.45;100214.81;4975652;28;45505;-67
2021/10/31 03:35:16;;;;;;;;;12.00;12.00;;;;;11.07;78.71;100220.94;4975621;28;46326;-68
2021/10/31 03:37:42;;;;;;;;;15.00;13.00;;;;;11.17;78.78;100213.13;4976078;28;47722;-69
2021/10/31 03:40:08;;;;;;;;;14.00;13.00;;;;;11.29;78.39;100208.63;4978229;28;45184;-70
2021/10/31 03:42:34;;;;;;;;;13.00;9.00;;;;;11.41;78.29;100196.22;4976026;28;45473;-69
2021/10/31 03:44:59;;;;;;;;;13.33;10.33;;;;;11.51;77.62;100212.03;4971352;28;45588;-69
2021/10/31 03:47:27;;;;;;;;;8.33;8.33;;;;;11.51;77.64;100199.72;4971064;28;45334;-69
2021/10/31 03:49:52;;;;;;;;;10.33;10.33;;;;;11.54;77.66;100204.69;4979521;28;45485;-69
2021/10/31 03:52:17;;;;;;;;;10.33;7.33;;;;;11.54;77.23;100195.97;4974386;28;46775;-69
2021/10/31 03:54:43;;;;;;;;;13.00;13.00;;;;;11.53;77.22;100199.56;4970995;28;47248;-69
2021/10/31 03:57:09;;;;;;;;;4.00;1.00;;;;;11.49;77.48;100192.91;4972480;28;45430;-68
2021/10/31 03:59:35;;;;;;;;;15.00;13.00;;;;;11.47;77.21;100192.19;4972065;28;45460;-67
2021/10/31 04:02:01;;;;;;;;;17.33;14.33;;;;;11.51;77.45;100188.38;4971974;28;45612;-68
2021/10/31 04:04:26;;;;;;;;;11.00;11.00;;;;;11.54;77.50;100188.09;4969797;28;47085;-69
2021/10/31 04:06:51;;;;;;;;;12.33;9.00;;;;;11.55;77.11;100172.16;4972295;28;46210;-68
2021/10/31 04:09:17;;;;;;;;;13.33;11.00;;;;;11.51;77.08;100173.41;4971934;28;45357;-68
2021/10/31 04:11:42;;;;;;;;;17.00;15.33;;;;;11.52;77.36;100176.84;4977965;28;45490;-69
2021/10/31 04:14:08;;;;;;;;;16.33;14.00;;;;;11.50;77.12;100170.91;4970173;28;46131;-69
2021/10/31 04:16:33;;;;;;;;;13.33;12.67;;;;;11.47;77.12;100164.13;4971179;28;45348;-69
2021/10/31 04:18:58;;;;;;;;;14.33;13.00;;;;;11.43;77.85;100159.25;4974643;28;45427;-70
2021/10/31 04:21:24;;;;;;;;;15.00;15.00;;;;;11.41;77.50;100148.06;4971511;28;45699;-69
2021/10/31 04:23:49;;;;;;;;;15.67;14.00;;;;;11.42;77.81;100157.59;4971787;28;45411;-68
2021/10/31 04:26:14;;;;;;;;;11.00;10.00;;;;;11.43;78.29;100154.00;4970453;28;45416;-68
2021/10/31 04:28:40;;;;;;;;;10.33;8.67;;;;;11.43;78.17;100154.00;4971528;28;45427;-68
2021/10/31 04:31:05;;;;;;;;;10.67;9.67;;;;;11.45;78.43;100152.06;4968149;28;45412;-69
2021/10/31 04:33:31;;;;;;;;;16.33;11.67;;;;;11.47;78.27;100147.50;4963750;28;46297;-69
2021/10/31 04:35:57;;;;;;;;;15.67;12.67;;;;;11.48;78.43;100150.00;4964706;28;45551;-69
2021/10/31 04:38:26;;;;;;;;;11.00;11.00;;;;;11.52;78.21;100142.66;4972183;28;45527;-69
2021/10/31 04:40:51;;;;;;;;;12.33;9.33;;;;;11.54;78.46;100149.47;4971883;28;45590;-69
2021/10/31 04:43:17;;;;;;;;;16.67;10.33;;;;;11.55;78.03;100151.13;4973330;28;46146;-69
2021/10/31 04:45:44;;;;;;;;;11.00;8.33;;;;;11.56;77.98;100144.09;4968676;28;45464;-69
2021/10/31 04:48:11;;;;;;;;;7.67;7.67;;;;;11.58;78.79;100144.75;4967497;28;45541;-69
2021/10/31 04:50:38;;;;;;;;;7.67;7.67;;;;;11.61;78.73;100141.03;4971741;28;45835;-70
2021/10/31 04:53:04;;;;;;;;;8.00;8.00;;;;;11.65;78.15;100135.38;4971978;28;46098;-69
2021/10/31 04:55:30;;;;;;;;;7.67;7.67;;;;;11.68;78.43;100140.34;4970727;28;45335;-69
2021/10/31 04:57:57;;;;;;;;;9.67;6.67;;;;;11.71;78.06;100140.09;4971829;28;45506;-68
2021/10/31 05:00:23;;;;;;;;;6.67;6.00;;;;;11.72;78.22;100131.22;4971428;28;45514;-70
2021/10/31 05:02:48;;;;;;;;;0.00;0.00;;;;;11.73;78.37;100122.38;4971293;28;46268;-69
2021/10/31 05:05:13;;;;;;;;;12.00;8.00;;;;;11.76;78.26;100110.75;4970059;28;45544;-69
2021/10/31 05:07:39;;;;;;;;;7.00;7.00;;;;;11.79;78.39;100107.00;4971573;28;45478;-69
2021/10/31 05:10:05;;;;;;;;;5.00;5.00;;;;;11.79;78.20;100107.81;4973596;28;45463;-69
2021/10/31 05:12:30;;;;;;;;;7.00;5.67;;;;;11.79;78.04;100101.75;4972485;28;45347;-68
2021/10/31 05:14:56;;;;;;;;;8.00;8.00;;;;;11.77;77.99;100090.53;4973213;28;45439;-69
2021/10/31 05:17:21;;;;;;;;;6.33;6.33;;;;;11.75;78.05;100088.03;4972751;28;45354;-69
2021/10/31 05:19:47;;;;;;;;;7.00;7.00;;;;;11.77;77.98;100086.09;4972229;28;45532;-69
2021/10/31 05:22:12;;;;;;;;;8.00;4.67;;;;;11.77;77.88;100078.19;4973600;28;45431;-69
2021/10/31 05:24:38;;;;;;;;;9.33;8.00;;;;;11.77;77.87;100075.56;4969553;28;45347;-68
2021/10/31 05:27:04;;;;;;;;;9.33;7.00;;;;;11.75;78.22;100069.59;4979731;28;45544;-70
2021/10/31 05:29:29;;;;;;;;;7.67;7.67;;;;;11.80;78.36;100063.94;4986773;28;45478;-69
2021/10/31 05:31:54;;;;;;;;;6.00;4.67;;;;;11.83;78.20;100055.75;4971144;28;45978;-69
2021/10/31 05:34:20;;;;;;;;;11.67;8.00;;;;;11.82;78.01;100056.72;4972371;28;45387;-69
2021/10/31 05:36:45;;;;;;;;;7.67;5.67;;;;;11.84;78.13;100047.72;4972563;28;45461;-69
2021/10/31 05:39:10;;;;;;;;;6.33;6.33;;;;;11.85;77.91;100043.31;4969729;28;45288;-69
2021/10/31 05:41:36;;;;;;;;;8.00;5.67;;;;;11.85;78.02;100040.66;4970364;28;46091;-69
2021/10/31 05:44:02;;;;;;;;;7.00;6.00;;;;;11.88;78.32;100040.38;4969260;28;45510;-69
2021/10/31 05:46:28;;;;;;;;;5.33;5.00;;;;;11.98;78.29;100038.59;4972062;28;45352;-69
2021/10/31 05:48:53;;;;;;;;;5.00;4.33;;;;;12.10;77.67;100027.94;4971138;28;45466;-70
2021/10/31 05:51:19;;;;;;;;;3.33;3.33;;;;;12.13;77.48;100031.13;4970500;28;47080;-70
2021/10/31 05:53:44;;;;;;;;;3.00;3.00;;;;;12.15;77.68;100025.72;4971199;28;45509;-68
2021/10/31 05:56:11;;;;;;;;;5.00;4.00;;;;;12.30;77.46;100016.41;4968975;28;45498;-69
2021/10/31 05:58:37;;;;;;;;;5.00;5.00;;;;;12.37;77.18;100024.56;4970947;28;45741;-69
2021/10/31 06:01:02;;;;;;;;;4.00;4.00;;;;;12.42;76.57;100024.13;4971937;28;46961;-68
2021/10/31 06:03:29;;;;;;;;;1.00;1.00;;;;;12.52;76.78;100027.56;4971301;28;45351;-69
2021/10/31 06:05:54;;;;;;;;;3.67;3.00;;;;;12.67;76.39;100028.75;4970510;28;45618;-69
2021/10/31 06:08:19;;;;;;;;;7.67;4.00;;;;;12.71;76.54;100022.22;4970285;28;45505;-70
2021/10/31 06:10:47;;;;;;;;;5.00;4.67;;;;;12.81;75.93;100009.00;4968126;28;47143;-70
2021/10/31 06:13:12;;;;;;;;;6.00;3.00;;;;;12.87;75.65;100004.97;4972894;28;45344;-69
2021/10/31 06:15:38;;;;;;;;;7.00;5.33;;;;;12.87;75.61;100002.31;4970633;28;45334;-68
2021/10/31 06:18:03;;;;;;;;;5.33;4.00;;;;;12.84;75.58;99989.41;4969042;28;45472;-69
2021/10/31 06:20:29;;;;;;;;;6.33;3.33;;;;;12.87;75.70;99986.50;4970953;28;45726;-69
2021/10/31 06:22:54;;;;;;;;;4.67;4.00;;;;;12.89;75.34;99992.44;4969597;28;45372;-69
2021/10/31 06:25:19;;;;;;;;;4.67;4.00;;;;;12.91;75.47;99993.13;4971838;28;45637;-69
2021/10/31 06:27:45;;;;;;;;;4.67;3.00;;;;;12.99;75.49;99995.88;4969739;28;45487;-68
2021/10/31 06:30:10;;;;;;;;;3.33;2.33;;;;;13.04;74.95;99995.44;4970701;28;46086;-68
2021/10/31 06:32:36;;;;;;;;;2.67;1.00;;;;;13.02;75.13;99992.91;4970807;28;45536;-69
2021/10/31 06:35:02;;;;;;;;;2.33;2.00;;;;;13.03;74.86;99986.69;4973806;28;45447;-69
2021/10/31 06:37:27;;;;;;;;;4.00;3.00;;;;;13.01;75.07;99979.88;4974412;28;45458;-69
2021/10/31 06:39:53;;;;;;;;;5.33;2.67;;;;;13.21;74.93;99975.34;4971820;28;46901;-68
2021/10/31 06:42:18;;;;;;;;;3.33;3.33;;;;;13.30;74.39;99979.72;4971627;28;45388;-69
2021/10/31 06:44:44;;;;;;;;;5.33;2.33;;;;;13.36;74.22;99962.44;4971416;28;45516;-69
2021/10/31 06:47:09;;;;;;;;;3.00;3.00;;;;;13.36;73.81;99963.31;4971643;28;45284;-68
2021/10/31 06:49:37;;;;;;;;;3.33;3.00;;;;;13.35;73.93;99950.25;4973430;28;45914;-69
2021/10/31 06:52:03;;;;;;;;;3.00;3.00;;;;;13.40;73.75;99947.19;4973110;28;45390;-70
2021/10/31 06:54:28;;;;;;;;;5.00;2.00;;;;;13.39;73.74;99950.78;4972017;28;45417;-69
2021/10/31 06:56:57;;;;;;;;;4.67;3.33;;;;;13.43;73.43;99949.50;4974594;28;45251;-70
2021/10/31 06:59:23;;;;;;;;;1.00;1.00;;;;;13.45;73.26;99953.66;4969835;28;45453;-68
2021/10/31 07:01:48;;;;;;;;;3.67;2.00;;;;;13.44;73.36;99956.44;4968596;28;45350;-70
2021/10/31 07:04:13;;;;;;;;;3.00;3.00;;;;;13.41;73.51;99952.28;4970151;28;45350;-69
2021/10/31 07:06:39;;;;;;;;;3.00;2.67;;;;;13.44;73.43;99948.53;4969709;28;45341;-70
2021/10/31 07:09:04;;;;;;;;;3.00;3.00;;;;;13.40;73.13;99941.91;4969272;28;46160;-69
2021/10/31 07:11:30;;;;;;;;;5.67;4.33;;;;;13.33;73.56;99942.47;4974792;28;45559;-69
2021/10/31 07:13:55;;;;;;;;;2.67;2.33;;;;;13.28;73.56;99921.00;4969634;28;45345;-69
2021/10/31 07:16:20;;;;;;;;;5.33;3.33;;;;;13.27;73.38;99919.34;4971833;28;46487;-68
2021/10/31 07:18:46;;;;;;;;;5.00;3.00;;;;;13.21;73.62;99912.03;4971091;28;45450;-69
2021/10/31 07:21:11;;;;;;;;;7.00;4.00;;;;;13.14;73.67;99917.09;4973066;28;45828;-69
2021/10/31 07:23:37;;;;;;;;;5.67;2.00;;;;;13.10;74.15;99922.81;4972637;28;45843;-69
2021/10/31 07:26:03;;;;;;;;;5.33;3.00;;;;;13.01;73.77;99917.47;4972607;28;45305;-69
2021/10/31 07:28:28;;;;;;;;;5.67;4.00;;;;;13.01;74.18;99928.00;4973411;28;45561;-69
2021/10/31 07:30:55;;;;;;;;;3.67;2.67;;;;;12.98;73.87;99920.38;4974095;28;45457;-69
2021/10/31 07:33:20;;;;;;;;;3.33;3.00;;;;;12.93;74.09;99927.91;4973202;28;45534;-68
2021/10/31 07:35:46;;;;;;;;;3.00;3.00;;;;;12.91;74.70;99915.84;4972764;28;45466;-69
2021/10/31 07:38:12;;;;;;;;;3.67;3.00;;;;;12.88;74.41;99911.72;4972204;28;45409;-69
2021/10/31 07:40:38;;;;;;;;;3.00;3.00;;;;;12.82;74.32;99913.16;4972341;28;45497;-69
2021/10/31 07:43:04;;;;;;;;;4.67;3.00;;;;;12.75;74.57;99900.72;4974626;28;45560;-69
2021/10/31 07:45:30;;;;;;;;;5.00;3.33;;;;;12.69;74.86;99897.69;4971217;28;45466;-71
2021/10/31 07:47:56;;;;;;;;;5.33;3.33;;;;;12.69;74.98;99897.69;4951411;28;46040;-69
2021/10/31 07:50:21;;;;;;;;;3.33;3.33;;;;;12.65;75.19;99896.31;4958538;28;45529;-69
2021/10/31 07:52:47;;;;;;;;;4.67;3.00;;;;;12.66;75.16;99900.63;4972724;28;45408;-69
2021/10/31 07:55:17;;;;;;;;;4.00;4.00;;;;;12.64;75.21;99907.84;4974979;28;45284;-70
2021/10/31 07:57:45;;;;;;;;;5.67;5.00;;;;;12.65;74.97;99909.50;4971312;28;46492;-69
2021/10/31 08:00:11;;;;;;;;;9.00;8.33;;;;;12.63;75.23;99908.81;4972209;28;45364;-70
2021/10/31 08:02:36;;;;;;;;;6.67;6.00;;;;;12.65;75.28;99900.75;4972740;28;45506;-69
2021/10/31 08:05:02;;;;;;;;;9.00;4.67;;;;;12.65;75.44;99891.06;4972900;28;45494;-70
2021/10/31 08:07:29;;;;;;;;;6.00;5.67;;;;;12.71;75.87;99890.47;4974154;28;46189;-70
2021/10/31 08:09:57;;;;;;;;;6.00;5.00;;;;;12.79;75.21;99878.34;4975214;28;45566;-69
2021/10/31 08:12:22;;;;;;;;;5.33;4.00;;;;;12.83;75.35;99869.16;4972409;28;45439;-70
2021/10/31 08:14:48;;;;;;;;;6.33;5.33;;;;;12.87;75.03;99862.63;4972506;28;45422;-68
2021/10/31 08:17:13;;;;;;;;;6.33;5.33;;;;;12.88;75.16;99865.13;4974493;28;45492;-70
2021/10/31 08:19:38;;;;;;;;;8.00;5.33;;;;;12.91;75.16;99856.06;4974102;28;45404;-68
2021/10/31 08:22:04;;;;;;;;;4.00;4.00;;;;;12.89;75.05;99858.03;4974482;28;45571;-69
2021/10/31 08:24:29;;;;;;;;;5.00;5.00;;;;;12.91;74.92;99866.63;4973297;28;45490;-69
2021/10/31 08:26:54;;;;;;;;;5.00;5.00;;;;;12.97;74.82;99863.38;4972474;28;46989;-69
2021/10/31 08:29:22;;;;;;;;;4.00;4.00;;;;;13.03;74.91;99857.50;4972029;28;45434;-69
2021/10/31 08:31:50;;;;;;;;;9.00;6.67;;;;;13.03;74.95;99852.22;4969961;28;45352;-69
2021/10/31 08:34:16;;;;;;;;;7.67;5.67;;;;;13.04;74.72;99840.69;4970309;28;45434;-70
2021/10/31 08:36:41;;;;;;;;;4.33;4.00;;;;;13.03;75.01;99831.13;4967691;28;46183;-70
2021/10/31 08:39:06;;;;;;;;;6.67;5.67;;;;;13.08;75.01;99829.84;4962614;28;45503;-69
2021/10/31 08:41:32;;;;;;;;;5.00;3.00;;;;;13.13;75.12;99835.47;4971146;28;45450;-69
2021/10/31 08:44:01;;;;;;;;;9.67;8.33;;;;;13.13;75.00;99830.22;4972469;28;45537;-70
2021/10/31 08:46:27;;;;;;;;;8.67;5.33;;;;;13.16;75.17;99819.38;4973304;28;46225;-69
2021/10/31 08:48:53;;;;;;;;;6.00;5.00;;;;;13.21;74.65;99806.56;4973278;28;45471;-69
2021/10/31 08:51:22;;;;;;;;;5.67;5.67;;;;;13.27;74.84;99807.75;4970603;28;45431;-71
2021/10/31 08:53:48;;;;;;;;;5.00;5.00;;;;;13.31;74.96;99796.75;4972892;28;45488;-69
2021/10/31 08:56:13;;;;;;;;;3.00;3.00;;;;;13.40;74.68;99788.91;4972852;28;45546;-70
2021/10/31 08:58:43;;;;;;;;;8.67;4.00;;;;;13.48;74.55;99789.78;4972520;28;45379;-69
2021/10/31 09:01:12;;;;;;;;;2.00;2.00;;;;;13.56;74.74;99777.63;4973779;28;45484;-70
2021/10/31 09:03:37;;;;;;;;;5.33;4.00;;;;;13.59;74.45;99774.69;4972824;28;45473;-67
2021/10/31 09:06:03;;;;;;;;;5.67;4.67;;;;;13.63;74.37;99771.56;4971147;28;46232;-69
2021/10/31 09:08:29;;;;;;;;;4.00;4.00;;;;;13.65;74.51;99763.50;4972000;28;47381;-69
2021/10/31 09:10:54;;;;;;;;;5.33;4.00;;;;;13.68;74.78;99760.53;4971903;28;45538;-69
2021/10/31 09:13:21;;;;;;;;;5.00;3.00;;;;;13.73;74.55;99762.72;4973760;28;45199;-69
2021/10/31 09:15:46;;;;;;;;;7.00;4.67;;;;;13.74;74.72;99759.91;4973051;28;46308;-69
2021/10/31 09:18:11;;;;;;;;;5.33;4.33;;;;;13.80;74.53;99754.00;4971428;28;45590;-69
2021/10/31 09:20:37;;;;;;;;;3.67;3.67;;;;;13.85;74.77;99740.31;4971700;28;45701;-71
2021/10/31 09:23:05;;;;;;;;;4.67;3.00;;;;;13.92;74.49;99733.44;4987034;28;45577;-69
2021/10/31 09:25:32;;;;;;;;;3.67;3.00;;;;;13.94;74.47;99723.50;4971701;28;45696;-70
2021/10/31 09:27:59;;;;;;;;;4.33;4.33;;;;;14.00;74.57;99712.31;4973593;28;45481;-69
2021/10/31 09:30:29;;;;;;;;;3.00;3.00;;;;;14.13;74.35;99711.03;4972119;28;45529;-70
2021/10/31 09:32:54;;;;;;;;;5.00;3.67;;;;;14.25;74.17;99699.16;4969553;28;45228;-70
2021/10/31 09:35:23;;;;;;;;;3.00;3.00;;;;;14.33;73.91;99706.28;4971327;28;46823;-69
2021/10/31 09:37:53;;;;;;;;;5.00;5.00;;;;;14.39;73.34;99705.63;4955212;28;45644;-69
2021/10/31 09:40:20;;;;;;;;;5.00;4.00;;;;;14.52;73.03;99705.16;4970044;28;45559;-70
2021/10/31 09:42:46;;;;;;;;;3.00;3.00;;;;;14.66;72.39;99703.66;4970052;28;45516;-70
2021/10/31 09:45:11;;;;;;;;;2.00;2.00;;;;;14.77;71.96;99695.41;4971122;28;46212;-70
2021/10/31 09:47:37;;;;;;;;;3.67;3.00;;;;;14.88;71.69;99694.25;4971157;28;45490;-71
2021/10/31 09:50:03;;;;;;;;;4.00;3.00;;;;;15.03;70.98;99678.53;4970188;28;45455;-70
2021/10/31 09:52:29;;;;;;;;;4.33;2.00;;;;;15.15;71.11;99676.34;4972314;28;45469;-71
2021/10/31 09:54:55;;;;;;;;;2.67;2.67;;;;;15.24;69.89;99662.09;4972745;28;45521;-72
2021/10/31 09:57:22;;;;;;;;;3.00;3.00;;;;;15.34;69.92;99656.63;4971831;28;45294;-69
2021/10/31 09:59:51;;;;;;;;;3.00;3.00;;;;;15.46;70.15;99649.13;4971123;28;45503;-70
2021/10/31 10:05:24;;;;;;;;;3.00;3.00;;;;;15.61;69.67;99647.41;4960243;28;45426;-70
2021/10/31 10:08:10;;;;;;;;;2.00;2.00;;;;;15.71;69.44;99646.34;4954640;28;45375;-69
2021/10/31 10:10:50;;;;;;;;;3.33;3.00;;;;;15.81;68.61;99634.59;4971331;28;45652;-70
2021/10/31 10:13:17;;;;;;;;;2.00;2.00;;;;;15.93;68.72;99635.00;4968971;28;45447;-70
2021/10/31 10:15:43;;;;;;;;;1.00;1.00;;;;;16.05;67.90;99621.34;4970605;28;47044;-70
2021/10/31 10:18:08;;;;;;;;;2.67;1.00;;;;;16.17;68.43;99615.44;4968886;28;45656;-70
2021/10/31 10:20:37;;;;;;;;;2.00;2.00;;;;;16.32;68.06;99618.16;4970948;28;45530;-72
2021/10/31 10:23:10;;;;;;;;;4.00;3.00;;;;;16.45;67.21;99622.00;4971312;28;45392;-70
2021/10/31 10:25:42;;;;;;;;;0.67;0.67;;;;;16.57;67.15;99614.47;4971153;28;46094;-70
2021/10/31 10:28:23;;;;;;;;;1.00;1.00;;;;;16.68;66.73;99611.38;4973343;28;45313;-70
2021/10/31 10:30:49;;;;;;;;;2.00;2.00;;;;;16.77;66.32;99591.72;4973589;28;45525;-71
2021/10/31 10:33:19;;;;;;;;;1.00;1.00;;;;;16.93;65.13;99597.88;4971788;28;45457;-71
2021/10/31 10:35:46;;;;;;;;;1.00;1.00;;;;;17.05;65.25;99585.00;4971225;28;47125;-71
2021/10/31 10:38:19;;;;;;;;;2.67;1.00;;;;;17.16;65.50;99581.84;4970700;28;45557;-71
2021/10/31 10:40:44;;;;;;;;;0.67;0.67;;;;;17.24;64.40;99573.81;4970973;28;45346;-71
2021/10/31 10:43:10;;;;;;;;;1.33;1.33;;;;;17.32;63.41;99554.31;4972600;28;45589;-70
2021/10/31 10:45:39;;;;;;;;;1.00;1.00;;;;;17.38;64.68;99569.47;4970598;28;46025;-70
2021/10/31 10:48:05;;;;;;;;;2.00;1.00;;;;;17.45;64.46;99558.94;4970808;28;45438;-71
2021/10/31 10:50:43;;;;;;;;;0.67;0.67;;;;;17.49;63.29;99550.41;4968479;28;45409;-71
2021/10/31 10:53:20;;;;;;;;;0.67;0.67;;;;;17.58;63.92;99556.44;4984124;28;45422;-69
2021/10/31 10:55:45;;;;;;;;;0.67;0.67;;;;;17.64;63.85;99558.34;4972541;28;46063;-70
2021/10/31 10:58:15;;;;;;;;;1.00;1.00;;;;;17.70;63.69;99563.91;4974927;28;45381;-70
2021/10/31 11:00:46;;;;;;;;;1.00;1.00;;;;;17.75;63.18;99550.88;4971251;28;45543;-70
2021/10/31 11:03:15;;;;;;;;;0.33;0.33;;;;;17.76;62.76;99556.00;4973277;28;45477;-71
2021/10/31 11:05:59;;;;;;;;;1.00;1.00;;;;;17.83;63.28;99557.91;4973107;28;45462;-71
2021/10/31 11:08:25;;;;;;;;;3.00;1.67;;;;;17.85;62.41;99551.38;4973068;28;45423;-72
2021/10/31 11:11:12;;;;;;;;;1.00;0.00;;;;;17.91;62.42;99552.44;4973837;28;45309;-70
2021/10/31 11:13:51;;;;;;;;;1.00;1.00;;;;;17.97;61.98;99547.22;4973040;28;45443;-68
2021/10/31 11:16:17;;;;;;;;;1.00;1.00;;;;;18.06;62.03;99563.84;4971311;28;46364;-72
2021/10/31 11:18:44;;;;;;;;;0.00;0.00;;;;;18.11;61.51;99553.47;4973322;28;45426;-70
2021/10/31 11:21:10;;;;;;;;;1.00;1.00;;;;;18.13;61.15;99540.00;4973659;28;45291;-71
2021/10/31 11:23:36;;;;;;;;;1.67;0.67;;;;;18.16;61.27;99531.63;4973364;28;45446;-71
2021/10/31 11:26:04;;;;;;;;;1.33;0.67;;;;;18.18;61.37;99524.28;4973519;28;46216;-71
2021/10/31 11:28:30;;;;;;;;;1.33;0.00;;;;;18.23;61.37;99523.72;4973558;28;47961;-70
2021/10/31 11:30:57;;;;;;;;;0.33;0.00;;;;;18.24;62.21;99520.88;4974914;28;45229;-70